sensor_id;sensor_type;location;lat;lon;timestamp;pressure;altitude;pressure_sealevel;temperature;humidity
75172;BME280;63750;52.418;20.742;2023-03-08T00:01:23;98655.79;;;4.17;65.38
75172;BME280;63750;52.418;20.742;2023-03-08T00:03:52;98661.78;;;4.13;65.45
75172;BME280;63750;52.418;20.742;2023-03-08T00:06:20;98672.55;;;4.14;65.61
75172;BME280;63750;52.418;20.742;2023-03-08T00:08:48;98682.70;;;4.14;65.46
75172;BME280;63750;52.418;20.742;2023-03-08T00:11:16;98683.24;;;4.15;65.98
75172;BME280;63750;52.418;20.742;2023-03-08T00:13:43;98680.38;;;4.18;66.02
75172;BME280;63750;52.418;20.742;2023-03-08T00:16:12;98675.04;;;4.17;65.73
75172;BME280;63750;52.418;20.742;2023-03-08T00:18:39;98669.67;;;4.18;65.72
75172;BME280;63750;52.418;20.742;2023-03-08T00:21:10;98667.21;;;4.16;65.69
75172;BME280;63750;52.418;20.742;2023-03-08T00:23:38;98664.01;;;4.17;65.85
75172;BME280;63750;52.418;20.742;2023-03-08T00:26:06;98660.50;;;4.13;65.81
75172;BME280;63750;52.418;20.742;2023-03-08T00:28:34;98652.17;;;4.12;65.77
75172;BME280;63750;52.418;20.742;2023-03-08T00:31:03;98654.45;;;4.04;66.21
75172;BME280;63750;52.418;20.742;2023-03-08T00:33:32;98661.60;;;3.97;66.36
75172;BME280;63750;52.418;20.742;2023-03-08T00:36:01;98661.64;;;3.91;66.46
75172;BME280;63750;52.418;20.742;2023-03-08T00:38:30;98663.55;;;3.81;67.09
75172;BME280;63750;52.418;20.742;2023-03-08T00:40:58;98663.30;;;3.80;66.48
75172;BME280;63750;52.418;20.742;2023-03-08T00:43:26;98666.80;;;3.78;66.46
75172;BME280;63750;52.418;20.742;2023-03-08T00:45:54;98668.52;;;3.73;66.84
75172;BME280;63750;52.418;20.742;2023-03-08T00:48:22;98664.51;;;3.72;66.72
75172;BME280;63750;52.418;20.742;2023-03-08T00:50:50;98666.86;;;3.73;66.63
75172;BME280;63750;52.418;20.742;2023-03-08T00:53:17;98660.90;;;3.70;66.94
75172;BME280;63750;52.418;20.742;2023-03-08T00:55:49;98659.54;;;3.71;66.80
75172;BME280;63750;52.418;20.742;2023-03-08T00:58:17;98659.61;;;3.74;66.83
75172;BME280;63750;52.418;20.742;2023-03-08T01:00:44;98658.41;;;3.78;66.83
75172;BME280;63750;52.418;20.742;2023-03-08T01:03:12;98656.95;;;3.80;66.49
75172;BME280;63750;52.418;20.742;2023-03-08T01:05:40;98655.35;;;3.79;66.60
75172;BME280;63750;52.418;20.742;2023-03-08T01:08:08;98653.33;;;3.80;66.44
75172;BME280;63750;52.418;20.742;2023-03-08T01:10:36;98639.27;;;3.78;66.64
75172;BME280;63750;52.418;20.742;2023-03-08T01:13:04;98637.27;;;3.71;66.94
75172;BME280;63750;52.418;20.742;2023-03-08T01:15:35;98640.74;;;3.68;66.86
75172;BME280;63750;52.418;20.742;2023-03-08T01:18:03;98641.93;;;3.62;66.98
75172;BME280;63750;52.418;20.742;2023-03-08T01:20:31;98643.49;;;3.65;66.84
75172;BME280;63750;52.418;20.742;2023-03-08T01:22:59;98643.39;;;3.71;66.61
75172;BME280;63750;52.418;20.742;2023-03-08T01:25:27;98645.73;;;3.73;66.69
75172;BME280;63750;52.418;20.742;2023-03-08T01:27:54;98649.84;;;3.68;66.97
75172;BME280;63750;52.418;20.742;2023-03-08T01:30:22;98644.05;;;3.64;66.82
75172;BME280;63750;52.418;20.742;2023-03-08T01:32:49;98650.79;;;3.57;66.85
75172;BME280;63750;52.418;20.742;2023-03-08T01:35:17;98654.48;;;3.61;66.79
75172;BME280;63750;52.418;20.742;2023-03-08T01:37:44;98651.59;;;3.62;67.04
75172;BME280;63750;52.418;20.742;2023-03-08T01:40:14;98657.64;;;3.63;67.06
75172;BME280;63750;52.418;20.742;2023-03-08T01:42:41;98656.89;;;3.62;66.96
75172;BME280;63750;52.418;20.742;2023-03-08T01:48:08;98658.27;;;3.50;67.21
75172;BME280;63750;52.418;20.742;2023-03-08T01:50:35;98657.98;;;3.45;67.19
75172;BME280;63750;52.418;20.742;2023-03-08T01:53:03;98661.23;;;3.48;67.28
75172;BME280;63750;52.418;20.742;2023-03-08T01:55:30;98666.06;;;3.49;66.88
75172;BME280;63750;52.418;20.742;2023-03-08T01:57:58;98663.33;;;3.48;66.80
75172;BME280;63750;52.418;20.742;2023-03-08T02:00:26;98669.17;;;3.45;67.10
75172;BME280;63750;52.418;20.742;2023-03-08T02:02:55;98664.05;;;3.44;66.88
75172;BME280;63750;52.418;20.742;2023-03-08T02:05:24;98661.52;;;3.47;67.01
75172;BME280;63750;52.418;20.742;2023-03-08T02:07:52;98657.65;;;3.45;67.00
75172;BME280;63750;52.418;20.742;2023-03-08T02:10:20;98662.33;;;3.41;66.82
75172;BME280;63750;52.418;20.742;2023-03-08T02:12:48;98666.46;;;3.44;67.01
75172;BME280;63750;52.418;20.742;2023-03-08T02:15:18;98667.10;;;3.45;66.85
75172;BME280;63750;52.418;20.742;2023-03-08T02:17:46;98669.42;;;3.50;66.96
75172;BME280;63750;52.418;20.742;2023-03-08T02:20:17;98678.15;;;3.55;66.82
75172;BME280;63750;52.418;20.742;2023-03-08T02:22:48;98685.00;;;3.53;66.83
75172;BME280;63750;52.418;20.742;2023-03-08T02:25:17;98691.55;;;3.53;66.73
75172;BME280;63750;52.418;20.742;2023-03-08T02:27:45;98684.27;;;3.57;66.69
75172;BME280;63750;52.418;20.742;2023-03-08T02:30:15;98682.92;;;3.58;66.63
75172;BME280;63750;52.418;20.742;2023-03-08T02:32:48;98675.27;;;3.58;66.77
75172;BME280;63750;52.418;20.742;2023-03-08T02:35:16;98675.54;;;3.57;66.69
75172;BME280;63750;52.418;20.742;2023-03-08T02:37:44;98677.84;;;3.58;66.69
75172;BME280;63750;52.418;20.742;2023-03-08T02:40:14;98684.41;;;3.57;66.56
75172;BME280;63750;52.418;20.742;2023-03-08T02:42:41;98685.87;;;3.55;66.75
75172;BME280;63750;52.418;20.742;2023-03-08T02:45:10;98691.50;;;3.54;66.62
75172;BME280;63750;52.418;20.742;2023-03-08T02:47:38;98685.75;;;3.54;66.49
75172;BME280;63750;52.418;20.742;2023-03-08T02:50:07;98694.17;;;3.47;66.85
75172;BME280;63750;52.418;20.742;2023-03-08T02:52:35;98694.95;;;3.47;66.74
75172;BME280;63750;52.418;20.742;2023-03-08T02:55:03;98691.39;;;3.48;66.63
75172;BME280;63750;52.418;20.742;2023-03-08T02:57:30;98697.91;;;3.49;66.81
75172;BME280;63750;52.418;20.742;2023-03-08T02:59:58;98696.79;;;3.46;66.78
75172;BME280;63750;52.418;20.742;2023-03-08T03:02:25;98700.51;;;3.43;66.83
75172;BME280;63750;52.418;20.742;2023-03-08T03:04:52;98699.15;;;3.39;66.94
75172;BME280;63750;52.418;20.742;2023-03-08T03:07:20;98700.63;;;3.36;67.12
75172;BME280;63750;52.418;20.742;2023-03-08T03:09:47;98695.77;;;3.37;67.02
75172;BME280;63750;52.418;20.742;2023-03-08T03:12:14;98701.60;;;3.45;67.41
75172;BME280;63750;52.418;20.742;2023-03-08T03:14:42;98709.26;;;3.51;67.16
75172;BME280;63750;52.418;20.742;2023-03-08T03:17:09;98718.30;;;3.50;67.08
75172;BME280;63750;52.418;20.742;2023-03-08T03:19:37;98716.61;;;3.51;67.04
75172;BME280;63750;52.418;20.742;2023-03-08T03:22:05;98722.02;;;3.52;67.19
75172;BME280;63750;52.418;20.742;2023-03-08T03:24:32;98728.10;;;3.48;67.20
75172;BME280;63750;52.418;20.742;2023-03-08T03:26:59;98728.25;;;3.50;67.12
75172;BME280;63750;52.418;20.742;2023-03-08T03:29:27;98729.36;;;3.52;67.02
75172;BME280;63750;52.418;20.742;2023-03-08T03:31:54;98731.16;;;3.49;67.21
75172;BME280;63750;52.418;20.742;2023-03-08T03:34:22;98736.60;;;3.47;67.27
75172;BME280;63750;52.418;20.742;2023-03-08T03:36:49;98736.21;;;3.47;67.03
75172;BME280;63750;52.418;20.742;2023-03-08T03:39:17;98741.77;;;3.48;66.93
75172;BME280;63750;52.418;20.742;2023-03-08T03:41:44;98741.81;;;3.45;66.91
75172;BME280;63750;52.418;20.742;2023-03-08T03:44:11;98738.99;;;3.44;67.08
75172;BME280;63750;52.418;20.742;2023-03-08T03:46:39;98735.39;;;3.41;67.46
75172;BME280;63750;52.418;20.742;2023-03-08T03:49:06;98732.79;;;3.42;67.19
75172;BME280;63750;52.418;20.742;2023-03-08T03:51:34;98736.91;;;3.43;67.37
75172;BME280;63750;52.418;20.742;2023-03-08T03:54:01;98745.59;;;3.42;67.55
75172;BME280;63750;52.418;20.742;2023-03-08T03:56:29;98748.82;;;3.43;67.37
75172;BME280;63750;52.418;20.742;2023-03-08T03:58:56;98751.95;;;3.44;67.76
75172;BME280;63750;52.418;20.742;2023-03-08T04:01:26;98752.69;;;3.41;67.69
75172;BME280;63750;52.418;20.742;2023-03-08T04:03:54;98757.19;;;3.32;68.23
75172;BME280;63750;52.418;20.742;2023-03-08T04:06:24;98763.35;;;3.31;67.75
75172;BME280;63750;52.418;20.742;2023-03-08T04:08:53;98767.85;;;3.32;67.73
75172;BME280;63750;52.418;20.742;2023-03-08T04:11:22;98766.30;;;3.32;67.61
75172;BME280;63750;52.418;20.742;2023-03-08T04:13:50;98770.23;;;3.31;67.82
75172;BME280;63750;52.418;20.742;2023-03-08T04:16:19;98768.87;;;3.32;67.90
75172;BME280;63750;52.418;20.742;2023-03-08T04:18:46;98773.79;;;3.40;67.74
75172;BME280;63750;52.418;20.742;2023-03-08T04:21:14;98775.93;;;3.41;67.82
75172;BME280;63750;52.418;20.742;2023-03-08T04:23:41;98773.86;;;3.39;67.80
75172;BME280;63750;52.418;20.742;2023-03-08T04:26:09;98766.96;;;3.36;67.77
75172;BME280;63750;52.418;20.742;2023-03-08T04:28:36;98772.95;;;3.42;67.65
75172;BME280;63750;52.418;20.742;2023-03-08T04:31:12;98777.05;;;3.43;67.75
75172;BME280;63750;52.418;20.742;2023-03-08T04:33:40;98777.88;;;3.47;67.83
75172;BME280;63750;52.418;20.742;2023-03-08T04:36:08;98782.39;;;3.54;67.88
75172;BME280;63750;52.418;20.742;2023-03-08T04:38:36;98783.73;;;3.59;67.66
75172;BME280;63750;52.418;20.742;2023-03-08T04:41:04;98792.42;;;3.62;67.58
75172;BME280;63750;52.418;20.742;2023-03-08T04:43:31;98793.39;;;3.61;67.18
75172;BME280;63750;52.418;20.742;2023-03-08T04:45:59;98800.98;;;3.60;67.16
75172;BME280;63750;52.418;20.742;2023-03-08T04:48:26;98797.93;;;3.59;67.27
75172;BME280;63750;52.418;20.742;2023-03-08T04:50:54;98798.70;;;3.58;66.96
75172;BME280;63750;52.418;20.742;2023-03-08T04:53:22;98797.67;;;3.60;66.95
75172;BME280;63750;52.418;20.742;2023-03-08T04:55:50;98803.00;;;3.61;66.87
75172;BME280;63750;52.418;20.742;2023-03-08T04:58:19;98805.48;;;3.58;66.92
75172;BME280;63750;52.418;20.742;2023-03-08T05:00:47;98800.13;;;3.56;66.69
75172;BME280;63750;52.418;20.742;2023-03-08T05:03:14;98805.04;;;3.49;66.92
75172;BME280;63750;52.418;20.742;2023-03-08T05:05:45;98802.30;;;3.46;66.91
75172;BME280;63750;52.418;20.742;2023-03-08T05:08:13;98801.85;;;3.48;66.88
75172;BME280;63750;52.418;20.742;2023-03-08T05:10:46;98803.91;;;3.46;66.86
75172;BME280;63750;52.418;20.742;2023-03-08T05:13:14;98808.86;;;3.47;66.80
75172;BME280;63750;52.418;20.742;2023-03-08T05:15:42;98812.11;;;3.49;66.80
75172;BME280;63750;52.418;20.742;2023-03-08T05:18:09;98818.46;;;3.48;66.57
75172;BME280;63750;52.418;20.742;2023-03-08T05:20:37;98822.18;;;3.50;66.60
75172;BME280;63750;52.418;20.742;2023-03-08T05:23:04;98834.57;;;3.50;66.46
75172;BME280;63750;52.418;20.742;2023-03-08T05:25:31;98839.41;;;3.47;66.43
75172;BME280;63750;52.418;20.742;2023-03-08T05:27:59;98840.94;;;3.45;66.32
75172;BME280;63750;52.418;20.742;2023-03-08T05:30:26;98837.84;;;3.44;66.35
75172;BME280;63750;52.418;20.742;2023-03-08T05:32:53;98842.73;;;3.45;66.32
75172;BME280;63750;52.418;20.742;2023-03-08T05:35:21;98843.59;;;3.39;66.16
75172;BME280;63750;52.418;20.742;2023-03-08T05:37:48;98842.33;;;3.35;66.04
75172;BME280;63750;52.418;20.742;2023-03-08T05:40:16;98844.98;;;3.33;65.85
75172;BME280;63750;52.418;20.742;2023-03-08T05:42:43;98850.64;;;3.34;65.75
75172;BME280;63750;52.418;20.742;2023-03-08T05:45:11;98855.42;;;3.31;65.33
75172;BME280;63750;52.418;20.742;2023-03-08T05:47:39;98856.70;;;3.33;65.31
75172;BME280;63750;52.418;20.742;2023-03-08T05:50:09;98857.13;;;3.28;65.24
75172;BME280;63750;52.418;20.742;2023-03-08T05:52:36;98868.20;;;3.25;64.91
75172;BME280;63750;52.418;20.742;2023-03-08T05:55:05;98865.21;;;3.19;64.66
75172;BME280;63750;52.418;20.742;2023-03-08T05:57:32;98872.13;;;3.20;64.40
75172;BME280;63750;52.418;20.742;2023-03-08T05:59:59;98876.39;;;3.14;64.05
75172;BME280;63750;52.418;20.742;2023-03-08T06:02:28;98886.02;;;3.12;64.31
75172;BME280;63750;52.418;20.742;2023-03-08T06:04:55;98889.59;;;3.12;64.01
75172;BME280;63750;52.418;20.742;2023-03-08T06:07:22;98892.19;;;3.12;63.77
75172;BME280;63750;52.418;20.742;2023-03-08T06:09:50;98891.23;;;3.17;63.52
75172;BME280;63750;52.418;20.742;2023-03-08T06:12:17;98903.39;;;3.21;63.29
75172;BME280;63750;52.418;20.742;2023-03-08T06:14:45;98906.23;;;3.27;63.18
75172;BME280;63750;52.418;20.742;2023-03-08T06:17:12;98908.51;;;3.33;63.31
75172;BME280;63750;52.418;20.742;2023-03-08T06:19:39;98918.17;;;3.60;64.92
75172;BME280;63750;52.418;20.742;2023-03-08T06:22:06;98917.99;;;3.90;64.60
75172;BME280;63750;52.418;20.742;2023-03-08T06:24:34;98919.35;;;4.15;64.73
75172;BME280;63750;52.418;20.742;2023-03-08T06:27:01;98917.20;;;4.46;64.79
75172;BME280;63750;52.418;20.742;2023-03-08T06:29:31;98921.60;;;4.77;65.27
75172;BME280;63750;52.418;20.742;2023-03-08T06:31:58;98924.85;;;5.02;63.79
75172;BME280;63750;52.418;20.742;2023-03-08T06:34:25;98929.60;;;5.19;63.60
75172;BME280;63750;52.418;20.742;2023-03-08T06:36:53;98935.73;;;5.43;64.24
75172;BME280;63750;52.418;20.742;2023-03-08T06:39:20;98935.02;;;5.60;63.59
75172;BME280;63750;52.418;20.742;2023-03-08T06:41:47;98947.02;;;5.56;61.58
75172;BME280;63750;52.418;20.742;2023-03-08T06:44:15;98948.54;;;5.50;62.08
75172;BME280;63750;52.418;20.742;2023-03-08T06:46:42;98952.64;;;5.52;62.20
75172;BME280;63750;52.418;20.742;2023-03-08T06:49:09;98959.13;;;5.40;60.69
75172;BME280;63750;52.418;20.742;2023-03-08T06:51:37;98964.56;;;5.50;61.48
75172;BME280;63750;52.418;20.742;2023-03-08T06:54:04;98967.27;;;5.59;61.44
75172;BME280;63750;52.418;20.742;2023-03-08T06:56:31;98966.09;;;5.75;61.72
75172;BME280;63750;52.418;20.742;2023-03-08T06:58:59;98974.55;;;5.91;61.12
75172;BME280;63750;52.418;20.742;2023-03-08T07:01:26;98975.22;;;5.87;60.62
75172;BME280;63750;52.418;20.742;2023-03-08T07:03:53;98985.43;;;6.00;60.80
75172;BME280;63750;52.418;20.742;2023-03-08T07:06:21;98995.85;;;5.77;58.81
75172;BME280;63750;52.418;20.742;2023-03-08T07:08:48;98983.43;;;5.55;58.71
75172;BME280;63750;52.418;20.742;2023-03-08T07:11:15;98988.67;;;5.46;58.85
75172;BME280;63750;52.418;20.742;2023-03-08T07:13:43;98989.84;;;5.56;59.67
75172;BME280;63750;52.418;20.742;2023-03-08T07:16:11;98995.52;;;5.75;59.90
75172;BME280;63750;52.418;20.742;2023-03-08T07:18:40;98995.67;;;5.86;59.26
75172;BME280;63750;52.418;20.742;2023-03-08T07:21:08;98996.92;;;5.95;58.83
75172;BME280;63750;52.418;20.742;2023-03-08T07:23:35;98995.40;;;5.83;57.28
75172;BME280;63750;52.418;20.742;2023-03-08T07:26:05;98999.27;;;5.60;56.50
75172;BME280;63750;52.418;20.742;2023-03-08T07:28:32;98994.60;;;5.40;56.19
75172;BME280;63750;52.418;20.742;2023-03-08T07:31:00;98998.36;;;5.28;56.06
75172;BME280;63750;52.418;20.742;2023-03-08T07:33:27;99006.75;;;5.16;55.87
75172;BME280;63750;52.418;20.742;2023-03-08T07:35:57;99012.10;;;5.02;55.23
75172;BME280;63750;52.418;20.742;2023-03-08T07:38:24;99008.37;;;4.92;55.39
75172;BME280;63750;52.418;20.742;2023-03-08T07:40:54;99010.30;;;4.84;55.78
75172;BME280;63750;52.418;20.742;2023-03-08T07:43:22;99016.52;;;4.84;55.59
75172;BME280;63750;52.418;20.742;2023-03-08T07:45:49;99022.49;;;4.69;54.99
75172;BME280;63750;52.418;20.742;2023-03-08T07:48:17;99026.29;;;4.64;56.00
75172;BME280;63750;52.418;20.742;2023-03-08T07:50:44;99025.69;;;4.65;55.94
75172;BME280;63750;52.418;20.742;2023-03-08T07:53:11;99036.52;;;4.63;55.50
75172;BME280;63750;52.418;20.742;2023-03-08T07:55:39;99029.40;;;4.60;55.71
75172;BME280;63750;52.418;20.742;2023-03-08T07:58:06;99036.67;;;4.64;55.47
75172;BME280;63750;52.418;20.742;2023-03-08T08:00:34;99043.00;;;4.66;55.09
75172;BME280;63750;52.418;20.742;2023-03-08T08:03:01;99038.46;;;4.66;55.18
75172;BME280;63750;52.418;20.742;2023-03-08T08:05:28;99040.17;;;4.80;55.49
75172;BME280;63750;52.418;20.742;2023-03-08T08:07:56;99041.85;;;4.93;55.27
75172;BME280;63750;52.418;20.742;2023-03-08T08:10:23;99038.33;;;5.01;54.71
75172;BME280;63750;52.418;20.742;2023-03-08T08:12:50;99047.36;;;4.94;53.61
75172;BME280;63750;52.418;20.742;2023-03-08T08:15:18;99048.51;;;4.95;53.74
75172;BME280;63750;52.418;20.742;2023-03-08T08:17:45;99048.67;;;4.99;53.27
75172;BME280;63750;52.418;20.742;2023-03-08T08:20:13;99050.88;;;5.06;52.85
75172;BME280;63750;52.418;20.742;2023-03-08T08:22:40;99055.13;;;5.12;52.81
75172;BME280;63750;52.418;20.742;2023-03-08T08:25:08;99051.50;;;5.03;51.43
75172;BME280;63750;52.418;20.742;2023-03-08T08:27:36;99051.95;;;5.04;52.26
75172;BME280;63750;52.418;20.742;2023-03-08T08:30:05;99061.34;;;5.14;52.35
75172;BME280;63750;52.418;20.742;2023-03-08T08:32:33;99058.21;;;5.24;52.99
75172;BME280;63750;52.418;20.742;2023-03-08T08:35:00;99050.66;;;5.50;53.77
75172;BME280;63750;52.418;20.742;2023-03-08T08:37:28;99053.63;;;5.67;53.16
75172;BME280;63750;52.418;20.742;2023-03-08T08:39:56;99056.63;;;5.88;53.46
75172;BME280;63750;52.418;20.742;2023-03-08T08:42:23;99060.02;;;5.98;51.96
75172;BME280;63750;52.418;20.742;2023-03-08T08:44:52;99061.60;;;5.95;50.73
75172;BME280;63750;52.418;20.742;2023-03-08T08:47:20;99062.94;;;6.00;51.04
75172;BME280;63750;52.418;20.742;2023-03-08T08:49:47;99068.20;;;6.05;50.71
75172;BME280;63750;52.418;20.742;2023-03-08T08:52:14;99060.52;;;6.06;50.40
75172;BME280;63750;52.418;20.742;2023-03-08T08:54:42;99068.18;;;6.11;50.75
75172;BME280;63750;52.418;20.742;2023-03-08T08:57:09;99072.15;;;6.17;50.30
75172;BME280;63750;52.418;20.742;2023-03-08T08:59:37;99070.25;;;6.21;50.13
75172;BME280;63750;52.418;20.742;2023-03-08T09:02:04;99071.42;;;6.38;50.77
75172;BME280;63750;52.418;20.742;2023-03-08T09:04:31;99078.03;;;6.67;49.71
75172;BME280;63750;52.418;20.742;2023-03-08T09:06:59;99085.20;;;6.75;49.90
75172;BME280;63750;52.418;20.742;2023-03-08T09:09:26;99080.50;;;6.74;49.34
75172;BME280;63750;52.418;20.742;2023-03-08T09:11:53;99075.45;;;6.87;49.71
75172;BME280;63750;52.418;20.742;2023-03-08T09:14:20;99081.19;;;7.04;49.38
75172;BME280;63750;52.418;20.742;2023-03-08T09:16:48;99078.33;;;7.15;49.09
75172;BME280;63750;52.418;20.742;2023-03-08T09:19:15;99091.94;;;7.21;48.10
75172;BME280;63750;52.418;20.742;2023-03-08T09:21:43;99087.29;;;7.03;46.42
75172;BME280;63750;52.418;20.742;2023-03-08T09:24:11;99082.73;;;7.10;46.74
75172;BME280;63750;52.418;20.742;2023-03-08T09:26:38;99083.32;;;7.19;46.98
75172;BME280;63750;52.418;20.742;2023-03-08T09:29:06;99085.30;;;7.05;45.40
75172;BME280;63750;52.418;20.742;2023-03-08T09:31:35;99086.84;;;7.11;47.05
75172;BME280;63750;52.418;20.742;2023-03-08T09:34:02;99083.60;;;7.23;47.29
75172;BME280;63750;52.418;20.742;2023-03-08T09:36:30;99080.31;;;7.44;47.49
75172;BME280;63750;52.418;20.742;2023-03-08T09:38:58;99078.83;;;7.63;47.51
75172;BME280;63750;52.418;20.742;2023-03-08T09:44:35;99075.91;;;8.13;47.68
75172;BME280;63750;52.418;20.742;2023-03-08T09:47:11;99080.25;;;8.33;47.16
75172;BME280;63750;52.418;20.742;2023-03-08T09:49:40;99087.23;;;8.22;46.00
75172;BME280;63750;52.418;20.742;2023-03-08T09:52:13;99083.77;;;7.98;44.43
75172;BME280;63750;52.418;20.742;2023-03-08T09:54:43;99084.30;;;7.71;44.22
75172;BME280;63750;52.418;20.742;2023-03-08T09:57:15;99077.71;;;7.70;44.94
75172;BME280;63750;52.418;20.742;2023-03-08T09:59:50;99078.52;;;7.96;45.60
75172;BME280;63750;52.418;20.742;2023-03-08T10:02:29;99085.30;;;8.17;44.67
75172;BME280;63750;52.418;20.742;2023-03-08T10:05:05;99085.80;;;8.17;44.45
75172;BME280;63750;52.418;20.742;2023-03-08T10:07:41;99081.66;;;8.16;43.29
75172;BME280;63750;52.418;20.742;2023-03-08T10:10:22;99083.33;;;8.08;42.60
75172;BME280;63750;52.418;20.742;2023-03-08T10:13:06;99078.09;;;7.93;42.72
75172;BME280;63750;52.418;20.742;2023-03-08T10:15:43;99084.58;;;8.13;44.09
75172;BME280;63750;52.418;20.742;2023-03-08T10:18:17;99084.70;;;8.35;44.62
75172;BME280;63750;52.418;20.742;2023-03-08T10:20:46;99084.48;;;8.46;44.16
75172;BME280;63750;52.418;20.742;2023-03-08T10:23:17;99091.82;;;8.46;43.72
75172;BME280;63750;52.418;20.742;2023-03-08T10:25:45;99092.05;;;8.73;44.55
75172;BME280;63750;52.418;20.742;2023-03-08T10:28:15;99088.55;;;9.19;45.24
75172;BME280;63750;52.418;20.742;2023-03-08T10:30:46;99083.24;;;9.74;45.30
75172;BME280;63750;52.418;20.742;2023-03-08T10:33:16;99087.67;;;10.07;44.38
75172;BME280;63750;52.418;20.742;2023-03-08T10:36:02;99086.36;;;10.04;42.35
75172;BME280;63750;52.418;20.742;2023-03-08T10:38:32;99095.45;;;9.73;40.55
75172;BME280;63750;52.418;20.742;2023-03-08T10:41:02;99083.46;;;9.44;41.23
75172;BME280;63750;52.418;20.742;2023-03-08T10:43:31;99092.80;;;9.24;40.76
75172;BME280;63750;52.418;20.742;2023-03-08T10:46:01;99095.70;;;8.98;40.61
75172;BME280;63750;52.418;20.742;2023-03-08T10:48:29;99097.79;;;8.69;41.27
75172;BME280;63750;52.418;20.742;2023-03-08T10:51:00;99089.44;;;8.58;41.60
75172;BME280;63750;52.418;20.742;2023-03-08T10:53:28;99090.02;;;8.58;42.39
75172;BME280;63750;52.418;20.742;2023-03-08T10:55:58;99093.70;;;8.59;42.64
75172;BME280;63750;52.418;20.742;2023-03-08T10:58:32;99094.13;;;8.41;40.98
75172;BME280;63750;52.418;20.742;2023-03-08T11:01:02;99099.91;;;8.36;40.31
75172;BME280;63750;52.418;20.742;2023-03-08T11:03:31;99092.48;;;8.31;40.54
75172;BME280;63750;52.418;20.742;2023-03-08T11:06:00;99087.96;;;8.29;40.76
75172;BME280;63750;52.418;20.742;2023-03-08T11:08:30;99087.88;;;8.12;39.16
75172;BME280;63750;52.418;20.742;2023-03-08T11:11:06;99090.98;;;8.04;39.56
75172;BME280;63750;52.418;20.742;2023-03-08T11:13:36;99089.15;;;8.10;40.15
75172;BME280;63750;52.418;20.742;2023-03-08T11:16:28;99098.25;;;8.02;40.50
75172;BME280;63750;52.418;20.742;2023-03-08T11:19:05;99096.92;;;8.12;41.09
75172;BME280;63750;52.418;20.742;2023-03-08T11:21:45;99092.34;;;8.13;41.18
75172;BME280;63750;52.418;20.742;2023-03-08T11:24:29;99092.65;;;8.19;41.25
75172;BME280;63750;52.418;20.742;2023-03-08T11:27:13;99100.81;;;8.04;40.66
75172;BME280;63750;52.418;20.742;2023-03-08T11:29:55;99096.35;;;7.90;41.35
75172;BME280;63750;52.418;20.742;2023-03-08T11:32:39;99088.52;;;7.88;41.63
75172;BME280;63750;52.418;20.742;2023-03-08T11:35:18;99088.58;;;7.94;42.20
75172;BME280;63750;52.418;20.742;2023-03-08T11:37:53;99088.98;;;8.08;41.70
75172;BME280;63750;52.418;20.742;2023-03-08T11:40:25;99084.38;;;8.08;41.29
75172;BME280;63750;52.418;20.742;2023-03-08T11:43:12;99084.25;;;8.16;41.61
75172;BME280;63750;52.418;20.742;2023-03-08T11:45:46;99084.56;;;8.36;41.72
75172;BME280;63750;52.418;20.742;2023-03-08T11:48:31;99084.67;;;8.42;40.78
75172;BME280;63750;52.418;20.742;2023-03-08T11:51:07;99081.23;;;8.24;40.49
75172;BME280;63750;52.418;20.742;2023-03-08T11:53:45;99075.52;;;8.19;41.15
75172;BME280;63750;52.418;20.742;2023-03-08T11:56:29;99072.85;;;8.34;41.63
75172;BME280;63750;52.418;20.742;2023-03-08T11:59:04;99077.90;;;8.36;41.70
75172;BME280;63750;52.418;20.742;2023-03-08T12:01:37;99076.10;;;8.34;41.91
75172;BME280;63750;52.418;20.742;2023-03-08T12:04:10;99074.02;;;8.46;41.31
75172;BME280;63750;52.418;20.742;2023-03-08T12:06:40;99076.45;;;8.65;41.23
75172;BME280;63750;52.418;20.742;2023-03-08T12:09:16;99070.34;;;8.61;40.28
75172;BME280;63750;52.418;20.742;2023-03-08T12:11:48;99066.45;;;8.65;41.02
75172;BME280;63750;52.418;20.742;2023-03-08T12:14:20;99070.34;;;8.72;41.20
75172;BME280;63750;52.418;20.742;2023-03-08T12:16:51;99073.17;;;8.87;41.73
75172;BME280;63750;52.418;20.742;2023-03-08T12:19:27;99078.23;;;8.95;41.34
75172;BME280;63750;52.418;20.742;2023-03-08T12:22:03;99076.24;;;8.87;41.44
75172;BME280;63750;52.418;20.742;2023-03-08T12:24:43;99074.97;;;8.83;41.06
75172;BME280;63750;52.418;20.742;2023-03-08T12:27:17;99077.50;;;8.74;40.53
75172;BME280;63750;52.418;20.742;2023-03-08T12:29:50;99079.64;;;8.50;40.56
75172;BME280;63750;52.418;20.742;2023-03-08T12:32:19;99081.84;;;8.35;39.88
75172;BME280;63750;52.418;20.742;2023-03-08T12:34:48;99075.83;;;8.23;40.08
75172;BME280;63750;52.418;20.742;2023-03-08T12:37:27;99070.52;;;8.22;40.34
75172;BME280;63750;52.418;20.742;2023-03-08T12:39:57;99073.61;;;8.06;39.50
75172;BME280;63750;52.418;20.742;2023-03-08T12:42:30;99077.46;;;8.00;40.29
75172;BME280;63750;52.418;20.742;2023-03-08T12:45:24;99080.48;;;7.97;40.29
75172;BME280;63750;52.418;20.742;2023-03-08T12:47:59;99071.75;;;7.79;39.89
75172;BME280;63750;52.418;20.742;2023-03-08T12:50:28;99073.62;;;7.58;40.35
75172;BME280;63750;52.418;20.742;2023-03-08T12:52:56;99071.11;;;7.62;40.54
75172;BME280;63750;52.418;20.742;2023-03-08T12:55:26;99070.48;;;7.71;40.83
75172;BME280;63750;52.418;20.742;2023-03-08T12:57:55;99069.60;;;7.83;41.25
75172;BME280;63750;52.418;20.742;2023-03-08T13:00:29;99071.50;;;8.03;41.75
75172;BME280;63750;52.418;20.742;2023-03-08T13:03:03;99077.36;;;8.24;42.04
75172;BME280;63750;52.418;20.742;2023-03-08T13:05:34;99071.20;;;8.50;42.02
75172;BME280;63750;52.418;20.742;2023-03-08T13:08:22;99069.23;;;8.76;42.32
75172;BME280;63750;52.418;20.742;2023-03-08T13:10:59;99065.52;;;9.17;42.59
75172;BME280;63750;52.418;20.742;2023-03-08T13:13:37;99066.41;;;9.38;41.88
75172;BME280;63750;52.418;20.742;2023-03-08T13:16:16;99065.98;;;9.59;42.21
75172;BME280;63750;52.418;20.742;2023-03-08T13:18:47;99058.15;;;9.82;41.91